Time;durP1;ratioP1;P1;durP2;ratioP2;P2;SDS_P1;SDS_P2;PMS_P1;PMS_P2;Temp;Humidity;BMP_temperature;BMP_pressure;BME280_temperature;BME280_humidity;BME280_pressure;Samples;Min_cycle;Max_cycle;Signal;HPM_P1;HPM_P2
2021/01/22 00:01:34;;;;;;;98.27;56.60;;;6.70;94.30;;;;;;4970602;28;20058;-57
2021/01/22 00:04:00;;;;;;;102.33;57.10;;;6.70;94.30;;;;;;4978256;28;20104;-56
2021/01/22 00:06:26;;;;;;;97.00;57.73;;;6.70;94.30;;;;;;4970627;28;20132;-57
2021/01/22 00:08:52;;;;;;;91.37;54.80;;;6.70;94.00;;;;;;4968592;28;20515;-56
2021/01/22 00:11:17;;;;;;;102.20;57.83;;;6.70;94.20;;;;;;4974900;28;20039;-57
2021/01/22 00:13:43;;;;;;;98.97;56.13;;;6.80;94.40;;;;;;4974300;28;20050;-54
2021/01/22 00:16:09;;;;;;;101.33;58.17;;;6.70;94.10;;;;;;4972960;28;20050;-57
2021/01/22 00:18:35;;;;;;;103.00;57.50;;;6.80;94.60;;;;;;4979612;28;20042;-57
2021/01/22 00:21:01;;;;;;;101.70;55.90;;;6.80;94.30;;;;;;4974257;28;20496;-56
2021/01/22 00:23:27;;;;;;;111.13;57.17;;;6.70;94.10;;;;;;4973189;28;20076;-55
2021/01/22 00:25:53;;;;;;;97.57;57.17;;;6.70;94.30;;;;;;4973419;28;20359;-55
2021/01/22 00:28:19;;;;;;;90.00;53.83;;;6.70;94.40;;;;;;4971117;28;20393;-57
2021/01/22 00:30:44;;;;;;;98.30;57.77;;;6.70;94.40;;;;;;4977365;28;20051;-57
2021/01/22 00:33:10;;;;;;;104.43;56.73;;;6.70;94.20;;;;;;4971619;28;22135;-57
2021/01/22 00:35:36;;;;;;;99.60;57.17;;;6.60;93.80;;;;;;4973228;28;20073;-56
2021/01/22 00:38:03;;;;;;;101.77;55.30;;;6.70;94.20;;;;;;4973922;28;20051;-55
2021/01/22 00:40:28;;;;;;;104.17;56.40;;;6.70;94.40;;;;;;4980658;27;20049;-57
2021/01/22 00:42:54;;;;;;;100.80;55.40;;;6.70;94.30;;;;;;4972962;28;20034;-58
2021/01/22 00:45:20;;;;;;;97.00;54.77;;;6.70;94.40;;;;;;4972568;28;20038;-57
2021/01/22 00:47:45;;;;;;;99.17;55.03;;;6.70;94.30;;;;;;4974195;28;20042;-57
2021/01/22 00:50:12;;;;;;;102.07;56.27;;;6.80;94.20;;;;;;4969065;28;20046;-55
2021/01/22 00:52:38;;;;;;;97.67;54.83;;;6.80;94.10;;;;;;4972804;28;20055;-57
2021/01/22 00:55:04;;;;;;;95.13;55.03;;;6.80;93.80;;;;;;4971926;28;20066;-59
2021/01/22 00:57:29;;;;;;;96.20;53.43;;;6.90;94.00;;;;;;4977458;28;20043;-56
2021/01/22 00:59:55;;;;;;;99.73;55.47;;;6.80;93.90;;;;;;4970886;28;20096;-54
2021/01/22 01:02:20;;;;;;;108.23;60.57;;;6.80;93.80;;;;;;4973682;28;20067;-55
2021/01/22 01:04:46;;;;;;;101.00;55.23;;;6.80;94.30;;;;;;4968413;28;20348;-54
2021/01/22 01:07:12;;;;;;;103.23;57.17;;;6.80;94.30;;;;;;4974724;28;20054;-52
2021/01/22 01:09:37;;;;;;;102.67;61.87;;;6.80;93.90;;;;;;4973836;28;20050;-56
2021/01/22 01:12:04;;;;;;;106.77;59.33;;;6.80;94.10;;;;;;4972962;28;20394;-56
2021/01/22 01:14:29;;;;;;;110.37;60.70;;;6.80;94.10;;;;;;4969781;28;20042;-54
2021/01/22 01:16:55;;;;;;;95.50;54.97;;;6.80;94.00;;;;;;4970499;28;20050;-53
2021/01/22 01:19:21;;;;;;;106.43;60.27;;;6.80;93.50;;;;;;4972050;28;20502;-54
2021/01/22 01:21:46;;;;;;;100.87;57.80;;;6.80;94.00;;;;;;4972871;28;20103;-58
2021/01/22 01:24:12;;;;;;;107.23;62.10;;;6.80;93.90;;;;;;4969889;28;20035;-56
2021/01/22 01:26:37;;;;;;;104.60;60.53;;;6.80;93.60;;;;;;4970618;28;20210;-56
2021/01/22 01:29:03;;;;;;;100.23;58.20;;;6.80;93.60;;;;;;4974331;28;20073;-56
2021/01/22 01:31:29;;;;;;;102.30;58.83;;;6.80;93.20;;;;;;4969855;28;20498;-54
2021/01/22 01:33:55;;;;;;;102.33;59.00;;;6.80;93.50;;;;;;4977440;28;20042;-57
2021/01/22 01:36:20;;;;;;;102.27;60.90;;;6.90;93.40;;;;;;4970435;28;20039;-57
2021/01/22 01:38:46;;;;;;;96.77;58.87;;;6.80;93.30;;;;;;4975810;28;20047;-56
2021/01/22 01:41:11;;;;;;;100.33;60.73;;;6.80;93.10;;;;;;4970543;28;20457;-56
2021/01/22 01:43:37;;;;;;;98.33;60.17;;;6.80;93.20;;;;;;4980824;28;20518;-55
2021/01/22 01:46:03;;;;;;;101.63;58.97;;;6.80;93.30;;;;;;4973790;28;20050;-60
2021/01/22 01:48:29;;;;;;;101.43;58.83;;;6.80;93.30;;;;;;4975876;28;20407;-56
2021/01/22 01:50:55;;;;;;;95.10;57.70;;;6.90;93.50;;;;;;4971731;28;20119;-55
2021/01/22 01:53:22;;;;;;;97.30;57.73;;;6.80;93.30;;;;;;4978000;28;20138;-56
2021/01/22 01:55:48;;;;;;;101.73;57.33;;;6.80;93.50;;;;;;4974888;28;20038;-56
2021/01/22 01:58:14;;;;;;;101.93;57.70;;;6.70;93.40;;;;;;4969111;28;20047;-56
2021/01/22 02:00:42;;;;;;;102.20;60.20;;;6.70;93.50;;;;;;4975498;28;20137;-54
2021/01/22 02:03:08;;;;;;;104.40;59.47;;;6.80;93.40;;;;;;4978049;28;20558;-55
2021/01/22 02:05:33;;;;;;;102.90;59.40;;;6.80;93.30;;;;;;4979614;28;20439;-59
2021/01/22 02:08:00;;;;;;;93.17;53.93;;;6.80;93.50;;;;;;4978483;28;20042;-55
2021/01/22 02:10:26;;;;;;;90.80;55.70;;;6.80;93.40;;;;;;4982013;28;20046;-56
2021/01/22 02:12:54;;;;;;;85.13;52.23;;;6.70;93.40;;;;;;4978865;28;20042;-56
2021/01/22 02:15:21;;;;;;;86.53;52.83;;;6.70;93.30;;;;;;4974958;28;20524;-57
2021/01/22 02:17:47;;;;;;;77.77;50.57;;;6.70;93.10;;;;;;4980008;28;20388;-57
2021/01/22 02:20:43;;;;;;;81.10;51.20;;;6.70;93.60;;;;;;4974007;28;20039;-56
2021/01/22 02:23:13;;;;;;;81.20;48.10;;;6.70;92.90;;;;;;4955555;28;20047;-56
2021/01/22 02:25:41;;;;;;;84.23;52.20;;;6.70;93.40;;;;;;4974059;28;20046;-57
2021/01/22 02:28:12;;;;;;;88.27;51.63;;;6.70;93.50;;;;;;4978187;28;20170;-56
2021/01/22 02:30:46;;;;;;;82.70;50.53;;;6.70;93.50;;;;;;4976066;28;20153;-55
2021/01/22 02:33:14;;;;;;;81.87;50.20;;;6.70;93.00;;;;;;4979536;28;20111;-57
2021/01/22 02:35:40;;;;;;;82.00;50.57;;;6.70;93.40;;;;;;4977006;28;20230;-57
2021/01/22 02:38:08;;;;;;;82.33;50.60;;;6.70;93.40;;;;;;4979246;28;20050;-56
2021/01/22 02:40:36;;;;;;;83.30;50.03;;;6.60;93.50;;;;;;4981651;28;20047;-59
2021/01/22 02:43:03;;;;;;;81.93;51.40;;;6.70;93.20;;;;;;4976349;28;20450;-56
2021/01/22 02:45:30;;;;;;;84.13;52.03;;;6.70;93.20;;;;;;4980584;28;20236;-56
2021/01/22 02:47:56;;;;;;;84.40;51.87;;;6.70;93.30;;;;;;4973346;28;20051;-53
2021/01/22 02:50:33;;;;;;;87.00;52.97;;;6.70;93.10;;;;;;4974030;28;20072;-56
2021/01/22 02:53:07;;;;;;;82.30;49.77;;;6.70;93.10;;;;;;4985567;28;20046;-57
2021/01/22 02:55:35;;;;;;;80.50;48.90;;;6.70;93.00;;;;;;4969881;28;20045;-61
2021/01/22 02:58:25;;;;;;;85.53;52.80;;;6.60;93.30;;;;;;4975895;28;20443;-56
2021/01/22 03:00:59;;;;;;;85.70;51.00;;;6.70;93.20;;;;;;4949885;28;20070;-54
2021/01/22 03:03:46;;;;;;;80.85;48.63;;;6.70;93.30;;;;;;4977685;28;20336;-57
2021/01/22 03:06:20;;;;;;;86.10;51.50;;;6.70;93.10;;;;;;4952293;28;20057;-55
2021/01/22 03:08:49;;;;;;;86.72;51.42;;;6.70;93.20;;;;;;4976582;28;20110;-55
2021/01/22 03:11:17;;;;;;;89.57;52.30;;;6.70;93.30;;;;;;4974243;28;20049;-56
2021/01/22 03:13:44;;;;;;;85.53;50.30;;;6.80;93.30;;;;;;4976620;28;20378;-55
2021/01/22 03:16:09;;;;;;;85.33;50.30;;;6.80;93.30;;;;;;4972481;28;20082;-51
2021/01/22 03:18:35;;;;;;;83.77;49.13;;;6.80;93.50;;;;;;4977291;28;20077;-54
2021/01/22 03:21:08;;;;;;;84.20;49.50;;;6.80;93.20;;;;;;4973842;28;20039;-53
2021/01/22 03:23:34;;;;;;;85.33;49.87;;;6.80;93.10;;;;;;4992668;28;20104;-53
2021/01/22 03:26:00;;;;;;;76.37;47.87;;;6.70;92.80;;;;;;4974923;28;20042;-57
2021/01/22 03:28:25;;;;;;;80.97;47.30;;;6.70;93.30;;;;;;4975683;28;20046;-58
2021/01/22 03:30:51;;;;;;;73.93;46.73;;;6.70;93.20;;;;;;4978435;28;20121;-58
2021/01/22 03:33:17;;;;;;;72.10;45.53;;;6.70;93.30;;;;;;4972649;28;20030;-55
2021/01/22 03:35:42;;;;;;;72.97;45.87;;;6.70;92.60;;;;;;4972732;28;20053;-56
2021/01/22 03:38:08;;;;;;;77.63;47.67;;;6.70;93.40;;;;;;4974662;28;20093;-56
2021/01/22 03:40:33;;;;;;;80.30;49.03;;;6.70;93.20;;;;;;4972692;28;20050;-57
2021/01/22 03:42:59;;;;;;;82.30;50.67;;;6.70;93.40;;;;;;4980925;28;20035;-57
2021/01/22 03:45:25;;;;;;;78.97;50.27;;;6.70;93.40;;;;;;4970357;28;20089;-56
2021/01/22 03:47:50;;;;;;;86.63;51.93;;;6.70;93.20;;;;;;4972538;28;20486;-57
2021/01/22 03:50:16;;;;;;;88.43;53.03;;;6.80;93.10;;;;;;4972824;28;20121;-58
2021/01/22 03:52:41;;;;;;;86.83;52.43;;;6.70;93.10;;;;;;4969124;28;20046;-57
2021/01/22 03:55:08;;;;;;;93.67;53.47;;;6.80;93.10;;;;;;4973261;28;20046;-57
2021/01/22 03:57:33;;;;;;;93.83;54.03;;;6.70;92.90;;;;;;4975416;28;20396;-60
2021/01/22 03:59:59;;;;;;;84.80;51.33;;;6.70;92.90;;;;;;4979183;28;20052;-56
2021/01/22 04:02:25;;;;;;;87.23;50.10;;;6.70;92.70;;;;;;4969146;28;20046;-56
2021/01/22 04:04:51;;;;;;;80.53;48.23;;;6.70;92.90;;;;;;4977370;28;20038;-55
2021/01/22 04:07:16;;;;;;;91.60;51.50;;;6.70;92.90;;;;;;4971942;28;20503;-58
2021/01/22 04:09:42;;;;;;;85.77;51.53;;;6.70;93.00;;;;;;4978628;28;20080;-57
2021/01/22 04:12:07;;;;;;;89.10;49.80;;;6.70;93.10;;;;;;4976416;28;20043;-57
2021/01/22 04:14:33;;;;;;;88.53;50.03;;;6.70;93.10;;;;;;4980651;28;20038;-61
2021/01/22 04:17:00;;;;;;;84.30;49.53;;;6.80;93.10;;;;;;4971338;28;20062;-57
2021/01/22 04:19:26;;;;;;;87.57;50.53;;;6.60;92.60;;;;;;4969326;28;20038;-57
2021/01/22 04:21:53;;;;;;;82.70;49.03;;;6.70;93.20;;;;;;4973449;28;20412;-56
2021/01/22 04:24:19;;;;;;;86.63;50.37;;;6.70;93.10;;;;;;4979110;28;20518;-56
2021/01/22 04:26:47;;;;;;;92.57;53.77;;;6.70;93.10;;;;;;4975853;28;20081;-57
2021/01/22 04:29:14;;;;;;;90.67;53.43;;;6.60;93.30;;;;;;4975686;28;20407;-57
2021/01/22 04:31:40;;;;;;;100.83;54.77;;;6.70;93.40;;;;;;4977546;28;20707;-57
2021/01/22 04:34:07;;;;;;;95.97;53.57;;;6.70;93.30;;;;;;4969048;28;20130;-58
2021/01/22 04:36:33;;;;;;;89.00;52.70;;;6.70;93.20;;;;;;4977144;28;20553;-53
2021/01/22 04:38:59;;;;;;;90.07;51.87;;;6.70;93.20;;;;;;4970292;28;20043;-56
2021/01/22 04:41:25;;;;;;;93.37;51.93;;;6.60;93.30;;;;;;4969573;28;20497;-57
2021/01/22 04:43:50;;;;;;;99.70;52.93;;;6.70;93.30;;;;;;4974549;28;20396;-57
2021/01/22 04:46:16;;;;;;;90.57;50.13;;;6.70;93.30;;;;;;4967668;28;20058;-56
2021/01/22 04:48:42;;;;;;;98.80;54.80;;;6.60;93.30;;;;;;4971842;28;20038;-55
2021/01/22 04:51:10;;;;;;;92.33;51.47;;;6.50;93.30;;;;;;4975636;28;20053;-54
2021/01/22 04:53:36;;;;;;;89.63;50.87;;;6.50;93.30;;;;;;4968504;28;20047;-55
2021/01/22 04:56:04;;;;;;;94.53;53.63;;;6.60;93.50;;;;;;4972152;28;20464;-57
2021/01/22 04:58:33;;;;;;;91.93;52.93;;;6.70;93.40;;;;;;4972224;28;20049;-55
2021/01/22 05:01:00;;;;;;;91.00;51.97;;;6.70;93.30;;;;;;4976076;28;20096;-57
2021/01/22 05:03:26;;;;;;;97.13;53.13;;;6.60;93.20;;;;;;4986309;28;20437;-55
2021/01/22 05:05:56;;;;;;;102.17;54.80;;;6.70;93.40;;;;;;4976720;28;20039;-56
2021/01/22 05:08:22;;;;;;;99.13;55.10;;;6.70;93.30;;;;;;4972665;28;20048;-54
2021/01/22 05:10:48;;;;;;;99.57;54.77;;;6.70;93.50;;;;;;4974611;28;20600;-54
2021/01/22 05:13:14;;;;;;;108.43;60.20;;;6.60;93.20;;;;;;4976233;28;20513;-55
2021/01/22 05:15:40;;;;;;;116.90;61.37;;;6.60;93.30;;;;;;4973365;28;20035;-57
2021/01/22 05:18:06;;;;;;;114.90;60.93;;;6.50;93.20;;;;;;4973155;28;20049;-57
2021/01/22 05:20:37;;;;;;;120.70;62.20;;;6.40;93.20;;;;;;4979982;28;20407;-57
2021/01/22 05:23:07;;;;;;;103.77;55.37;;;6.50;93.50;;;;;;4974351;28;20035;-55
2021/01/22 05:25:53;;;;;;;113.87;59.73;;;6.50;93.40;;;;;;4975021;28;20045;-56
2021/01/22 05:28:39;;;;;;;123.13;63.40;;;6.50;93.40;;;;;;4949939;28;20043;-56
2021/01/22 05:31:07;;;;;;;112.23;59.80;;;6.50;93.70;;;;;;4972945;28;20449;-55
2021/01/22 05:33:33;;;;;;;128.60;64.30;;;6.50;93.50;;;;;;4981407;28;20039;-55
2021/01/22 05:36:18;;;;;;;112.80;59.40;;;6.50;93.60;;;;;;4972613;28;20051;-57
2021/01/22 05:38:44;;;;;;;114.40;56.30;;;6.50;93.40;;;;;;4958669;28;20054;-57
2021/01/22 05:41:10;;;;;;;119.50;60.33;;;6.40;93.60;;;;;;4973095;28;20028;-57
2021/01/22 05:43:37;;;;;;;124.10;62.20;;;6.50;93.60;;;;;;4988704;28;20120;-53
2021/01/22 05:46:04;;;;;;;121.43;62.60;;;6.50;93.40;;;;;;4974619;28;20604;-56
2021/01/22 05:48:30;;;;;;;118.40;59.20;;;6.60;93.30;;;;;;4976029;28;20119;-53
2021/01/22 05:50:59;;;;;;;118.50;62.83;;;6.60;93.70;;;;;;4978982;28;20470;-54
2021/01/22 05:53:27;;;;;;;113.60;61.20;;;6.60;93.50;;;;;;4975041;28;20048;-57
2021/01/22 05:56:13;;;;;;;120.53;59.43;;;6.50;93.40;;;;;;4972816;28;20031;-57
2021/01/22 05:58:48;;;;;;;110.17;57.53;;;6.60;93.60;;;;;;4951440;28;20491;-53
2021/01/22 06:01:18;;;;;;;103.45;54.53;;;6.50;93.60;;;;;;4970990;28;20561;-56
2021/01/22 06:03:45;;;;;;;94.20;52.00;;;6.50;93.50;;;;;;4978358;28;20065;-56
2021/01/22 06:06:11;;;;;;;91.23;50.53;;;6.50;93.30;;;;;;4975731;28;20043;-56
2021/01/22 06:08:50;;;;;;;94.73;49.93;;;6.50;93.40;;;;;;4976467;28;20092;-57
2021/01/22 06:11:17;;;;;;;92.50;52.10;;;6.50;93.30;;;;;;4975528;28;20034;-57
2021/01/22 06:13:48;;;;;;;102.00;52.97;;;6.40;93.90;;;;;;4980893;28;20498;-58
2021/01/22 06:16:19;;;;;;;101.17;54.33;;;6.40;93.50;;;;;;4989117;28;20438;-57
2021/01/22 06:18:56;;;;;;;89.83;49.30;;;6.40;93.70;;;;;;4975938;28;20049;-57
2021/01/22 06:21:29;;;;;;;91.03;50.17;;;6.30;93.70;;;;;;4971510;28;20035;-57
2021/01/22 06:23:55;;;;;;;94.17;49.47;;;6.40;93.80;;;;;;4976556;28;20053;-58
2021/01/22 06:26:21;;;;;;;91.77;49.00;;;6.40;93.70;;;;;;4976091;28;20593;-57
2021/01/22 06:28:51;;;;;;;84.10;44.43;;;6.40;93.60;;;;;;4971785;28;20051;-57
2021/01/22 06:31:18;;;;;;;79.77;42.90;;;6.50;93.50;;;;;;4976510;28;20046;-56
2021/01/22 06:33:46;;;;;;;77.40;41.63;;;6.30;93.10;;;;;;4969488;28;20039;-58
2021/01/22 06:36:13;;;;;;;85.40;44.33;;;6.40;93.80;;;;;;4980586;27;20047;-58
2021/01/22 06:38:40;;;;;;;88.80;45.03;;;6.40;93.70;;;;;;4975212;28;20054;-57
2021/01/22 06:41:07;;;;;;;76.77;42.70;;;6.50;93.70;;;;;;4972330;28;20496;-56
2021/01/22 06:43:36;;;;;;;80.40;42.13;;;6.40;93.60;;;;;;4974980;28;20039;-56
2021/01/22 06:46:05;;;;;;;79.77;44.60;;;6.50;93.80;;;;;;4970851;28;20043;-56
2021/01/22 06:48:53;;;;;;;71.73;40.00;;;6.30;93.90;;;;;;4974838;28;20039;-55
2021/01/22 06:51:25;;;;;;;85.37;45.57;;;6.30;93.80;;;;;;4936081;28;20043;-54
2021/01/22 06:54:06;;;;;;;82.17;43.67;;;6.30;93.90;;;;;;4970917;28;20054;-56
2021/01/22 06:56:52;;;;;;;76.87;43.20;;;6.30;93.40;;;;;;4976304;28;20089;-56
2021/01/22 06:59:28;;;;;;;68.70;39.63;;;6.40;93.80;;;;;;4940324;28;20074;-57
2021/01/22 07:01:54;;;;;;;71.17;41.33;;;6.40;93.70;;;;;;4979617;27;20387;-54
2021/01/22 07:04:37;;;;;;;72.97;40.47;;;6.50;93.80;;;;;;4973970;28;20241;-55
2021/01/22 07:07:04;;;;;;;63.83;38.17;;;6.50;93.50;;;;;;4987231;28;20181;-57
2021/01/22 07:09:46;;;;;;;66.13;38.47;;;6.50;93.60;;;;;;4980014;28;20046;-55
2021/01/22 07:12:13;;;;;;;59.33;35.93;;;6.50;93.60;;;;;;4954525;28;20522;-56
2021/01/22 07:14:50;;;;;;;55.97;34.60;;;6.40;93.30;;;;;;4973091;28;20514;-57
2021/01/22 07:17:21;;;;;;;70.93;38.67;;;6.50;93.40;;;;;;4988424;28;20433;-58
2021/01/22 07:19:59;;;;;;;63.63;36.37;;;6.50;93.50;;;;;;4973812;28;20046;-56
2021/01/22 07:22:27;;;;;;;71.27;41.40;;;6.50;93.40;;;;;;4975160;28;20687;-57
2021/01/22 07:24:56;;;;;;;63.47;36.67;;;6.50;93.50;;;;;;4969582;28;20042;-54
2021/01/22 07:27:22;;;;;;;61.40;39.00;;;6.60;92.90;;;;;;4973845;28;20487;-56
2021/01/22 07:30:11;;;;;;;65.10;37.13;;;6.50;93.30;;;;;;4973927;28;20045;-56
2021/01/22 07:32:38;;;;;;;70.60;39.73;;;6.60;92.90;;;;;;4979283;28;20034;-56
2021/01/22 07:35:09;;;;;;;62.43;37.73;;;6.60;93.30;;;;;;4966370;28;20054;-58
2021/01/22 07:37:37;;;;;;;63.43;36.33;;;6.60;93.10;;;;;;4965700;28;20046;-58
2021/01/22 07:40:10;;;;;;;63.67;36.67;;;6.60;93.50;;;;;;4970649;28;20038;-56
2021/01/22 07:42:37;;;;;;;69.97;39.70;;;6.60;93.30;;;;;;4977386;28;20049;-54
2021/01/22 07:45:13;;;;;;;72.50;40.57;;;6.60;93.20;;;;;;4972240;28;20046;-54
2021/01/22 07:47:41;;;;;;;66.77;40.20;;;6.60;93.10;;;;;;4977325;28;20153;-57
2021/01/22 07:50:14;;;;;;;73.07;41.93;;;6.70;93.20;;;;;;4970897;28;20128;-57
2021/01/22 07:52:47;;;;;;;67.20;39.63;;;6.70;93.40;;;;;;4974146;28;20050;-55
2021/01/22 07:55:14;;;;;;;68.67;39.20;;;6.70;93.10;;;;;;4972053;28;20514;-54
2021/01/22 07:57:40;;;;;;;76.13;42.77;;;6.60;93.30;;;;;;4972429;28;20145;-54
2021/01/22 08:00:09;;;;;;;72.20;43.70;;;6.70;93.10;;;;;;4976024;28;20054;-58
2021/01/22 08:02:35;;;;;;;74.30;42.00;;;6.70;93.20;;;;;;4967427;28;20941;-58
2021/01/22 08:05:03;;;;;;;78.77;44.20;;;6.80;93.30;;;;;;4970212;28;20120;-58
2021/01/22 08:07:41;;;;;;;84.50;45.43;;;6.80;93.30;;;;;;4969852;28;20466;-57
2021/01/22 08:10:09;;;;;;;81.00;44.57;;;6.90;93.10;;;;;;4974071;28;20053;-57
2021/01/22 08:12:36;;;;;;;71.37;42.97;;;6.80;93.20;;;;;;4965565;28;20535;-58
2021/01/22 08:15:17;;;;;;;76.70;43.23;;;6.80;93.10;;;;;;4970257;28;20043;-58
2021/01/22 08:17:47;;;;;;;71.70;43.50;;;6.80;93.10;;;;;;4950288;28;20043;-57
2021/01/22 08:20:15;;;;;;;77.07;43.87;;;6.90;93.20;;;;;;4973543;28;20695;-57
2021/01/22 08:22:41;;;;;;;74.13;41.53;;;6.80;93.20;;;;;;4973751;28;20108;-57
2021/01/22 08:25:08;;;;;;;76.47;41.97;;;6.90;93.30;;;;;;4965816;28;20507;-56
2021/01/22 08:27:34;;;;;;;77.83;43.97;;;6.90;92.90;;;;;;4970020;28;20080;-57
2021/01/22 08:30:00;;;;;;;76.97;43.77;;;6.90;93.10;;;;;;4967366;28;20058;-56
2021/01/22 08:32:28;;;;;;;75.70;43.77;;;7.00;93.20;;;;;;4964821;28;20376;-55
2021/01/22 08:34:55;;;;;;;78.47;44.87;;;7.10;93.20;;;;;;4970303;28;20134;-55
2021/01/22 08:37:21;;;;;;;78.97;43.30;;;7.10;92.90;;;;;;4972406;28;20054;-56
2021/01/22 08:40:00;;;;;;;81.43;45.50;;;7.10;93.10;;;;;;4966187;28;20149;-56
2021/01/22 08:42:30;;;;;;;76.90;44.33;;;7.10;92.90;;;;;;4968977;28;20932;-57
2021/01/22 08:44:58;;;;;;;80.40;45.17;;;7.10;92.90;;;;;;4971904;28;20042;-55
2021/01/22 08:47:26;;;;;;;82.63;46.20;;;7.10;93.00;;;;;;4964917;28;20125;-54
2021/01/22 08:50:00;;;;;;;80.33;47.57;;;7.10;93.10;;;;;;4976328;28;20065;-55
2021/01/22 08:52:27;;;;;;;83.37;46.90;;;7.10;92.80;;;;;;4968763;28;20077;-57
2021/01/22 08:54:55;;;;;;;80.53;45.97;;;7.10;93.10;;;;;;4970682;28;20042;-56
2021/01/22 08:57:22;;;;;;;81.57;45.33;;;7.10;92.70;;;;;;4971408;28;20035;-56
2021/01/22 08:59:58;;;;;;;87.07;46.83;;;7.20;93.10;;;;;;4971904;28;20510;-55
2021/01/22 09:02:39;;;;;;;81.40;46.77;;;7.30;93.10;;;;;;4968356;28;20096;-58
2021/01/22 09:05:13;;;;;;;86.70;44.63;;;7.20;93.40;;;;;;4980985;28;20073;-57
2021/01/22 09:07:43;;;;;;;73.05;42.75;;;7.20;93.30;;;;;;4973033;28;20078;-55
2021/01/22 09:10:21;;;;;;;86.27;45.50;;;7.20;93.20;;;;;;4965325;28;20054;-53
2021/01/22 09:12:47;;;;;;;81.80;47.10;;;7.20;93.40;;;;;;4971917;28;20047;-57
2021/01/22 09:15:17;;;;;;;84.70;46.67;;;7.20;93.40;;;;;;4969926;28;20069;-56
2021/01/22 09:17:44;;;;;;;85.37;47.83;;;7.20;93.10;;;;;;4959870;28;20055;-55
2021/01/22 09:20:17;;;;;;;75.27;44.30;;;7.30;93.50;;;;;;4960685;28;20050;-55
2021/01/22 09:22:45;;;;;;;79.60;44.63;;;7.40;93.30;;;;;;4965799;28;20156;-55
2021/01/22 09:25:17;;;;;;;81.40;47.20;;;7.30;93.30;;;;;;4962325;28;20049;-54
2021/01/22 09:27:44;;;;;;;71.07;44.33;;;7.40;93.60;;;;;;4964626;28;20462;-56
2021/01/22 09:30:12;;;;;;;77.83;44.37;;;7.30;93.30;;;;;;4959539;28;20495;-56
2021/01/22 09:32:40;;;;;;;81.00;44.20;;;7.30;93.50;;;;;;4965224;28;20051;-59
2021/01/22 09:35:06;;;;;;;80.87;45.33;;;7.30;93.40;;;;;;4961232;28;20983;-60
2021/01/22 09:37:33;;;;;;;86.37;46.53;;;7.40;93.70;;;;;;4965640;28;20061;-60
2021/01/22 09:39:58;;;;;;;77.60;44.57;;;7.40;93.60;;;;;;4962005;28;20066;-60
2021/01/22 09:42:24;;;;;;;81.97;46.33;;;7.30;93.90;;;;;;4964901;28;20130;-60
2021/01/22 09:44:50;;;;;;;85.97;47.20;;;7.30;94.00;;;;;;4960335;28;20126;-56
2021/01/22 09:47:15;;;;;;;79.83;45.17;;;7.30;93.80;;;;;;4966390;28;20889;-55
2021/01/22 09:49:41;;;;;;;88.73;48.30;;;7.30;93.70;;;;;;4963626;28;20085;-56
2021/01/22 09:52:07;;;;;;;77.90;45.80;;;7.30;93.80;;;;;;4981745;28;20038;-56
2021/01/22 09:54:33;;;;;;;83.00;46.00;;;7.30;93.80;;;;;;4970221;28;20487;-57
2021/01/22 09:56:59;;;;;;;88.13;48.40;;;7.40;93.90;;;;;;4960525;28;20151;-56
2021/01/22 09:59:24;;;;;;;87.47;48.90;;;7.40;93.80;;;;;;4965761;28;20611;-55
2021/01/22 10:01:50;;;;;;;89.97;50.00;;;7.30;93.80;;;;;;4959993;28;21015;-56
2021/01/22 10:04:16;;;;;;;84.03;47.67;;;7.40;93.90;;;;;;4968131;28;20046;-57
2021/01/22 10:06:41;;;;;;;82.80;46.37;;;7.40;93.70;;;;;;4965035;28;20083;-55
2021/01/22 10:09:10;;;;;;;83.67;46.47;;;7.40;93.90;;;;;;4972177;28;20046;-56
2021/01/22 10:11:40;;;;;;;86.17;46.10;;;7.30;94.20;;;;;;4965795;28;20047;-57
2021/01/22 10:14:06;;;;;;;81.10;45.43;;;7.40;93.80;;;;;;4971189;28;20046;-57
2021/01/22 10:16:32;;;;;;;86.43;48.50;;;7.40;93.90;;;;;;4965840;28;20095;-57
2021/01/22 10:18:58;;;;;;;82.20;46.23;;;7.40;93.80;;;;;;4968559;28;20059;-57
2021/01/22 10:21:24;;;;;;;88.43;45.97;;;7.50;93.90;;;;;;4962617;28;20046;-56
2021/01/22 10:23:51;;;;;;;75.80;43.07;;;7.50;94.00;;;;;;4971733;28;20043;-56
2021/01/22 10:26:18;;;;;;;80.47;44.57;;;7.50;94.20;;;;;;4965740;28;20039;-57
2021/01/22 10:28:45;;;;;;;77.53;42.93;;;7.50;94.10;;;;;;4969190;28;20050;-57
2021/01/22 10:31:11;;;;;;;82.63;44.93;;;7.40;94.30;;;;;;4965711;28;20546;-57
2021/01/22 10:33:37;;;;;;;79.93;44.67;;;7.50;94.30;;;;;;4969705;28;20045;-56
2021/01/22 10:36:04;;;;;;;75.17;43.07;;;7.40;94.10;;;;;;4972202;28;20038;-56
2021/01/22 10:38:29;;;;;;;81.57;44.00;;;7.40;94.10;;;;;;4965756;28;20078;-57
2021/01/22 10:40:55;;;;;;;75.00;42.73;;;7.30;94.30;;;;;;4969496;28;20184;-56
2021/01/22 10:43:22;;;;;;;83.30;45.53;;;7.40;94.10;;;;;;4971493;28;20042;-57
2021/01/22 10:45:49;;;;;;;79.90;43.00;;;7.40;94.20;;;;;;4969964;28;20050;-56
2021/01/22 10:48:16;;;;;;;71.63;41.17;;;7.40;94.10;;;;;;4977398;28;20787;-57
2021/01/22 10:50:42;;;;;;;73.87;40.63;;;7.40;94.10;;;;;;4976261;28;20093;-58
2021/01/22 10:53:07;;;;;;;70.20;41.23;;;7.50;94.20;;;;;;4969176;28;20068;-57
2021/01/22 10:55:33;;;;;;;69.53;40.17;;;7.50;94.60;;;;;;4975917;28;20035;-55
2021/01/22 10:57:59;;;;;;;65.00;41.13;;;7.40;94.50;;;;;;4967789;28;20111;-57
2021/01/22 11:00:25;;;;;;;71.33;41.73;;;7.30;99.80;;;;;;4969923;28;20038;-58
2021/01/22 11:02:51;;;;;;;66.63;41.80;;;7.20;99.90;;;;;;4970508;28;20042;-55
2021/01/22 11:05:16;;;;;;;73.70;42.13;;;7.00;99.90;;;;;;4972439;28;20395;-56
2021/01/22 11:07:42;;;;;;;73.03;40.27;;;7.00;99.90;;;;;;4974387;28;20065;-56
2021/01/22 11:10:09;;;;;;;88.70;46.23;;;6.80;99.90;;;;;;4973194;28;20042;-54
2021/01/22 11:12:34;;;;;;;91.80;47.63;;;6.50;99.90;;;;;;4971331;28;20058;-54
2021/01/22 11:15:00;;;;;;;100.10;47.73;;;6.40;99.90;;;;;;4969870;28;20074;-56
2021/01/22 11:17:26;;;;;;;85.27;43.67;;;6.40;99.90;;;;;;4972463;28;20062;-54
2021/01/22 11:19:51;;;;;;;86.90;43.47;;;6.30;99.90;;;;;;4971556;28;20048;-55
2021/01/22 11:22:17;;;;;;;73.70;41.10;;;6.40;99.90;;;;;;4972750;28;20134;-55
2021/01/22 11:24:43;;;;;;;66.30;37.37;;;6.30;99.90;;;;;;4972358;28;20038;-56
2021/01/22 11:27:09;;;;;;;75.30;39.93;;;6.30;99.90;;;;;;4971738;28;20046;-55
2021/01/22 11:29:34;;;;;;;71.73;37.60;;;6.50;99.90;;;;;;4969458;28;20483;-55
2021/01/22 11:32:00;;;;;;;56.07;35.20;;;6.50;99.90;;;;;;4974339;28;20035;-51
2021/01/22 11:34:26;;;;;;;54.27;31.47;;;6.50;99.90;;;;;;4969630;28;20101;-55
2021/01/22 11:36:51;;;;;;;52.03;32.60;;;6.40;99.90;;;;;;4968059;28;20054;-56
2021/01/22 11:39:17;;;;;;;49.97;31.10;;;6.40;99.90;;;;;;4967351;28;20399;-52
2021/01/22 11:41:42;;;;;;;47.07;30.43;;;6.30;99.90;;;;;;4967682;28;20039;-56
2021/01/22 11:44:09;;;;;;;42.80;28.80;;;6.30;99.90;;;;;;4966468;28;20076;-55
2021/01/22 11:46:36;;;;;;;46.80;30.47;;;6.30;99.90;;;;;;4969895;28;20030;-55
2021/01/22 11:49:02;;;;;;;48.07;31.37;;;6.30;99.90;;;;;;4964147;28;20050;-55
2021/01/22 11:51:28;;;;;;;50.13;30.97;;;6.30;99.90;;;;;;4967984;28;20046;-53
2021/01/22 11:53:54;;;;;;;51.33;31.73;;;6.40;99.90;;;;;;4972003;28;20110;-55
2021/01/22 11:56:19;;;;;;;46.67;29.37;;;6.30;99.90;;;;;;4969837;28;20058;-56
2021/01/22 11:58:45;;;;;;;45.87;30.10;;;6.40;99.90;;;;;;4972125;28;20086;-58
2021/01/22 12:01:11;;;;;;;45.23;29.63;;;6.30;99.90;;;;;;4965572;28;20429;-54
2021/01/22 12:03:36;;;;;;;53.03;32.33;;;6.20;99.90;;;;;;4967309;28;20043;-54
2021/01/22 12:06:02;;;;;;;48.50;31.30;;;6.20;99.90;;;;;;4964301;28;20076;-53
2021/01/22 12:08:28;;;;;;;54.70;34.07;;;6.10;99.90;;;;;;4968965;28;20053;-53
2021/01/22 12:10:53;;;;;;;51.20;30.83;;;6.20;99.90;;;;;;4969666;28;20457;-55
2021/01/22 12:13:19;;;;;;;57.40;32.50;;;6.20;99.90;;;;;;4966953;28;20077;-56
2021/01/22 12:15:46;;;;;;;63.60;35.43;;;6.20;99.90;;;;;;4950156;28;20126;-53
2021/01/22 12:18:12;;;;;;;53.77;32.47;;;6.20;99.90;;;;;;4972327;27;20100;-54
2021/01/22 12:20:38;;;;;;;50.67;33.03;;;6.30;99.90;;;;;;4967565;28;20132;-55
2021/01/22 12:23:03;;;;;;;55.10;33.90;;;6.30;99.90;;;;;;4970632;28;20038;-54
2021/01/22 12:25:29;;;;;;;59.37;34.97;;;6.30;99.90;;;;;;4967018;28;20482;-55
2021/01/22 12:27:55;;;;;;;55.83;33.47;;;6.20;99.90;;;;;;4968074;28;20084;-54
2021/01/22 12:30:21;;;;;;;63.73;36.43;;;6.20;99.90;;;;;;4972771;28;20497;-65
2021/01/22 12:32:47;;;;;;;53.20;33.43;;;6.30;99.90;;;;;;4972789;28;20084;-61
2021/01/22 12:35:14;;;;;;;56.27;33.63;;;6.00;99.90;;;;;;4970359;28;20078;-61
2021/01/22 12:37:40;;;;;;;83.90;42.87;;;6.00;99.90;;;;;;4966895;28;20047;-63
2021/01/22 12:40:06;;;;;;;54.27;32.93;;;6.10;99.90;;;;;;4968334;27;20053;-61